sensor_id;sensor_type;location;lat;lon;timestamp;P1;durP1;ratioP1;P2;durP2;ratioP2
7557;SDS011;3820;51.098;13.716;2023-04-05T00:02:18;8.07;;;4.60;;
7557;SDS011;3820;51.098;13.716;2023-04-05T00:04:46;7.57;;;4.37;;
7557;SDS011;3820;51.098;13.716;2023-04-05T00:07:17;7.70;;;5.00;;
7557;SDS011;3820;51.098;13.716;2023-04-05T00:09:44;7.67;;;4.30;;
7557;SDS011;3820;51.098;13.716;2023-04-05T00:12:11;9.07;;;4.97;;
7557;SDS011;3820;51.098;13.716;2023-04-05T00:14:38;6.63;;;4.63;;
7557;SDS011;3820;51.098;13.716;2023-04-05T00:17:07;6.63;;;4.73;;
7557;SDS011;3820;51.098;13.716;2023-04-05T00:19:38;6.43;;;4.70;;
7557;SDS011;3820;51.098;13.716;2023-04-05T00:22:04;7.07;;;4.77;;
7557;SDS011;3820;51.098;13.716;2023-04-05T00:24:31;6.50;;;4.10;;
7557;SDS011;3820;51.098;13.716;2023-04-05T00:26:59;6.97;;;4.50;;
7557;SDS011;3820;51.098;13.716;2023-04-05T00:29:27;4.87;;;4.10;;
7557;SDS011;3820;51.098;13.716;2023-04-05T00:31:53;9.27;;;4.67;;
7557;SDS011;3820;51.098;13.716;2023-04-05T00:34:21;7.60;;;4.20;;
7557;SDS011;3820;51.098;13.716;2023-04-05T00:36:47;7.70;;;5.00;;
7557;SDS011;3820;51.098;13.716;2023-04-05T00:39:14;10.60;;;4.73;;
7557;SDS011;3820;51.098;13.716;2023-04-05T00:41:40;8.23;;;4.70;;
7557;SDS011;3820;51.098;13.716;2023-04-05T00:44:07;8.90;;;4.90;;
7557;SDS011;3820;51.098;13.716;2023-04-05T00:46:34;9.07;;;5.33;;
7557;SDS011;3820;51.098;13.716;2023-04-05T00:49:02;9.40;;;5.70;;
7557;SDS011;3820;51.098;13.716;2023-04-05T00:51:30;7.17;;;5.30;;
7557;SDS011;3820;51.098;13.716;2023-04-05T00:53:59;9.63;;;6.20;;
7557;SDS011;3820;51.098;13.716;2023-04-05T00:56:26;10.93;;;6.00;;
7557;SDS011;3820;51.098;13.716;2023-04-05T00:58:53;8.07;;;5.63;;
7557;SDS011;3820;51.098;13.716;2023-04-05T01:01:20;10.43;;;6.17;;
7557;SDS011;3820;51.098;13.716;2023-04-05T01:03:57;8.47;;;5.60;;
7557;SDS011;3820;51.098;13.716;2023-04-05T01:09:58;7.87;;;5.60;;
7557;SDS011;3820;51.098;13.716;2023-04-05T01:12:11;8.67;;;5.97;;
7557;SDS011;3820;51.098;13.716;2023-04-05T01:14:44;8.73;;;5.77;;
7557;SDS011;3820;51.098;13.716;2023-04-05T01:17:10;9.37;;;5.90;;
7557;SDS011;3820;51.098;13.716;2023-04-05T01:19:37;9.83;;;6.20;;
7557;SDS011;3820;51.098;13.716;2023-04-05T01:22:26;9.40;;;6.03;;
7557;SDS011;3820;51.098;13.716;2023-04-05T01:28:17;10.27;;;5.87;;
7557;SDS011;3820;51.098;13.716;2023-04-05T01:31:07;10.30;;;6.07;;
7557;SDS011;3820;51.098;13.716;2023-04-05T01:33:48;10.13;;;6.37;;
7557;SDS011;3820;51.098;13.716;2023-04-05T01:36:23;11.23;;;6.53;;
7557;SDS011;3820;51.098;13.716;2023-04-05T01:38:52;8.63;;;6.40;;
7557;SDS011;3820;51.098;13.716;2023-04-05T01:41:20;9.10;;;5.73;;
7557;SDS011;3820;51.098;13.716;2023-04-05T01:43:47;7.87;;;5.73;;
7557;SDS011;3820;51.098;13.716;2023-04-05T01:46:14;13.07;;;6.27;;
7557;SDS011;3820;51.098;13.716;2023-04-05T01:48:41;9.40;;;5.90;;
7557;SDS011;3820;51.098;13.716;2023-04-05T01:51:09;8.80;;;6.43;;
7557;SDS011;3820;51.098;13.716;2023-04-05T01:53:37;7.87;;;5.90;;
7557;SDS011;3820;51.098;13.716;2023-04-05T01:56:05;9.80;;;5.67;;
7557;SDS011;3820;51.098;13.716;2023-04-05T01:58:32;7.87;;;5.73;;
7557;SDS011;3820;51.098;13.716;2023-04-05T02:00:58;10.97;;;5.93;;
7557;SDS011;3820;51.098;13.716;2023-04-05T02:03:25;7.73;;;5.83;;
7557;SDS011;3820;51.098;13.716;2023-04-05T02:05:53;9.27;;;5.70;;
7557;SDS011;3820;51.098;13.716;2023-04-05T02:08:19;7.67;;;5.50;;
7557;SDS011;3820;51.098;13.716;2023-04-05T02:10:46;9.30;;;5.63;;
7557;SDS011;3820;51.098;13.716;2023-04-05T02:13:13;8.90;;;6.37;;
7557;SDS011;3820;51.098;13.716;2023-04-05T02:15:39;11.00;;;6.10;;
7557;SDS011;3820;51.098;13.716;2023-04-05T02:18:06;10.83;;;5.93;;
7557;SDS011;3820;51.098;13.716;2023-04-05T02:20:33;9.70;;;5.90;;
7557;SDS011;3820;51.098;13.716;2023-04-05T02:23:00;9.13;;;6.00;;
7557;SDS011;3820;51.098;13.716;2023-04-05T02:25:27;9.10;;;6.17;;
7557;SDS011;3820;51.098;13.716;2023-04-05T02:27:53;8.90;;;6.13;;
7557;SDS011;3820;51.098;13.716;2023-04-05T02:30:20;9.07;;;6.00;;
7557;SDS011;3820;51.098;13.716;2023-04-05T02:32:47;8.60;;;6.30;;
7557;SDS011;3820;51.098;13.716;2023-04-05T02:35:13;7.90;;;6.07;;
7557;SDS011;3820;51.098;13.716;2023-04-05T02:37:42;11.73;;;6.00;;
7557;SDS011;3820;51.098;13.716;2023-04-05T02:40:12;9.40;;;6.00;;
7557;SDS011;3820;51.098;13.716;2023-04-05T02:42:40;9.27;;;5.47;;
7557;SDS011;3820;51.098;13.716;2023-04-05T02:45:07;7.73;;;6.07;;
7557;SDS011;3820;51.098;13.716;2023-04-05T02:47:33;7.43;;;6.03;;
7557;SDS011;3820;51.098;13.716;2023-04-05T02:50:00;10.63;;;6.13;;
7557;SDS011;3820;51.098;13.716;2023-04-05T02:52:26;7.37;;;5.50;;
7557;SDS011;3820;51.098;13.716;2023-04-05T02:54:53;7.77;;;5.70;;
7557;SDS011;3820;51.098;13.716;2023-04-05T02:57:19;10.73;;;6.60;;
7557;SDS011;3820;51.098;13.716;2023-04-05T02:59:46;9.03;;;5.70;;
7557;SDS011;3820;51.098;13.716;2023-04-05T03:02:12;10.33;;;5.60;;
7557;SDS011;3820;51.098;13.716;2023-04-05T03:04:39;11.43;;;5.77;;
7557;SDS011;3820;51.098;13.716;2023-04-05T03:07:06;9.60;;;5.67;;
7557;SDS011;3820;51.098;13.716;2023-04-05T03:09:33;8.33;;;5.47;;
7557;SDS011;3820;51.098;13.716;2023-04-05T03:12:00;9.93;;;6.10;;
7557;SDS011;3820;51.098;13.716;2023-04-05T03:14:29;7.67;;;5.57;;
7557;SDS011;3820;51.098;13.716;2023-04-05T03:16:56;10.47;;;6.00;;
7557;SDS011;3820;51.098;13.716;2023-04-05T03:19:24;8.57;;;6.10;;
7557;SDS011;3820;51.098;13.716;2023-04-05T03:21:51;9.70;;;5.70;;
7557;SDS011;3820;51.098;13.716;2023-04-05T03:24:18;8.27;;;5.50;;
7557;SDS011;3820;51.098;13.716;2023-04-05T03:26:45;9.77;;;6.07;;
7557;SDS011;3820;51.098;13.716;2023-04-05T03:29:12;7.57;;;5.53;;
7557;SDS011;3820;51.098;13.716;2023-04-05T03:31:39;11.50;;;5.63;;
7557;SDS011;3820;51.098;13.716;2023-04-05T03:34:05;7.23;;;5.67;;
7557;SDS011;3820;51.098;13.716;2023-04-05T03:36:32;8.03;;;5.83;;
7557;SDS011;3820;51.098;13.716;2023-04-05T03:39:07;8.43;;;5.53;;
7557;SDS011;3820;51.098;13.716;2023-04-05T03:41:36;10.60;;;5.70;;
7557;SDS011;3820;51.098;13.716;2023-04-05T03:44:03;8.87;;;6.07;;
7557;SDS011;3820;51.098;13.716;2023-04-05T03:46:29;7.07;;;5.63;;
7557;SDS011;3820;51.098;13.716;2023-04-05T03:48:56;14.77;;;6.37;;
7557;SDS011;3820;51.098;13.716;2023-04-05T03:51:24;7.77;;;5.67;;
7557;SDS011;3820;51.098;13.716;2023-04-05T03:53:50;11.33;;;6.17;;
7557;SDS011;3820;51.098;13.716;2023-04-05T03:56:17;9.00;;;6.17;;
7557;SDS011;3820;51.098;13.716;2023-04-05T03:58:43;9.37;;;6.30;;
7557;SDS011;3820;51.098;13.716;2023-04-05T04:01:11;7.90;;;6.17;;
7557;SDS011;3820;51.098;13.716;2023-04-05T04:03:37;8.43;;;5.77;;
7557;SDS011;3820;51.098;13.716;2023-04-05T04:06:04;9.33;;;6.47;;
7557;SDS011;3820;51.098;13.716;2023-04-05T04:08:32;8.73;;;6.07;;
7557;SDS011;3820;51.098;13.716;2023-04-05T04:10:58;8.97;;;6.23;;
7557;SDS011;3820;51.098;13.716;2023-04-05T04:13:25;8.10;;;6.17;;
7557;SDS011;3820;51.098;13.716;2023-04-05T04:15:51;9.60;;;6.37;;
7557;SDS011;3820;51.098;13.716;2023-04-05T04:18:18;8.47;;;6.47;;
7557;SDS011;3820;51.098;13.716;2023-04-05T04:20:44;9.13;;;6.60;;
7557;SDS011;3820;51.098;13.716;2023-04-05T04:23:11;7.40;;;5.90;;
7557;SDS011;3820;51.098;13.716;2023-04-05T04:25:39;8.80;;;6.63;;
7557;SDS011;3820;51.098;13.716;2023-04-05T04:28:07;11.03;;;6.30;;
7557;SDS011;3820;51.098;13.716;2023-04-05T04:30:36;9.67;;;6.67;;
7557;SDS011;3820;51.098;13.716;2023-04-05T04:33:03;9.87;;;6.80;;
7557;SDS011;3820;51.098;13.716;2023-04-05T04:35:33;10.63;;;6.97;;
7557;SDS011;3820;51.098;13.716;2023-04-05T04:38:04;10.07;;;6.57;;
7557;SDS011;3820;51.098;13.716;2023-04-05T04:40:32;11.23;;;6.80;;
7557;SDS011;3820;51.098;13.716;2023-04-05T04:43:07;9.70;;;6.70;;
7557;SDS011;3820;51.098;13.716;2023-04-05T04:45:45;11.73;;;7.27;;
7557;SDS011;3820;51.098;13.716;2023-04-05T04:48:15;8.40;;;6.63;;
7557;SDS011;3820;51.098;13.716;2023-04-05T04:50:42;10.60;;;7.27;;
7557;SDS011;3820;51.098;13.716;2023-04-05T04:53:09;12.43;;;8.00;;
7557;SDS011;3820;51.098;13.716;2023-04-05T04:55:37;13.10;;;6.73;;
7557;SDS011;3820;51.098;13.716;2023-04-05T04:58:04;12.20;;;7.17;;
7557;SDS011;3820;51.098;13.716;2023-04-05T05:00:37;10.90;;;7.77;;
7557;SDS011;3820;51.098;13.716;2023-04-05T05:03:05;11.30;;;7.50;;
7557;SDS011;3820;51.098;13.716;2023-04-05T05:05:33;12.27;;;8.20;;
7557;SDS011;3820;51.098;13.716;2023-04-05T05:07:59;13.20;;;8.30;;
7557;SDS011;3820;51.098;13.716;2023-04-05T05:10:26;12.43;;;8.47;;
7557;SDS011;3820;51.098;13.716;2023-04-05T05:12:53;11.77;;;8.27;;
7557;SDS011;3820;51.098;13.716;2023-04-05T05:15:19;11.80;;;7.30;;
7557;SDS011;3820;51.098;13.716;2023-04-05T05:17:46;13.60;;;7.73;;
7557;SDS011;3820;51.098;13.716;2023-04-05T05:20:12;11.80;;;7.90;;
7557;SDS011;3820;51.098;13.716;2023-04-05T05:22:39;11.60;;;7.90;;
7557;SDS011;3820;51.098;13.716;2023-04-05T05:25:06;11.73;;;7.90;;
7557;SDS011;3820;51.098;13.716;2023-04-05T05:27:33;11.83;;;8.30;;
7557;SDS011;3820;51.098;13.716;2023-04-05T05:30:00;13.53;;;8.00;;
7557;SDS011;3820;51.098;13.716;2023-04-05T05:32:27;12.50;;;8.07;;
7557;SDS011;3820;51.098;13.716;2023-04-05T05:34:53;13.23;;;7.83;;
7557;SDS011;3820;51.098;13.716;2023-04-05T05:37:30;12.20;;;8.07;;
7557;SDS011;3820;51.098;13.716;2023-04-05T05:39:57;13.07;;;8.13;;
7557;SDS011;3820;51.098;13.716;2023-04-05T05:42:24;12.10;;;8.27;;
7557;SDS011;3820;51.098;13.716;2023-04-05T05:44:52;13.73;;;8.50;;
7557;SDS011;3820;51.098;13.716;2023-04-05T05:47:19;12.00;;;7.77;;
7557;SDS011;3820;51.098;13.716;2023-04-05T05:49:46;14.50;;;8.57;;
7557;SDS011;3820;51.098;13.716;2023-04-05T05:52:17;12.70;;;8.50;;
7557;SDS011;3820;51.098;13.716;2023-04-05T05:54:44;10.97;;;7.80;;
7557;SDS011;3820;51.098;13.716;2023-04-05T05:57:12;12.80;;;8.13;;
7557;SDS011;3820;51.098;13.716;2023-04-05T05:59:38;16.20;;;8.80;;
7557;SDS011;3820;51.098;13.716;2023-04-05T06:02:05;11.93;;;7.70;;
7557;SDS011;3820;51.098;13.716;2023-04-05T06:04:31;10.57;;;7.80;;
7557;SDS011;3820;51.098;13.716;2023-04-05T06:06:59;15.37;;;8.30;;
7557;SDS011;3820;51.098;13.716;2023-04-05T06:09:26;11.40;;;7.47;;
7557;SDS011;3820;51.098;13.716;2023-04-05T06:11:54;10.73;;;6.93;;
7557;SDS011;3820;51.098;13.716;2023-04-05T06:14:23;19.23;;;11.90;;
7557;SDS011;3820;51.098;13.716;2023-04-05T06:16:50;13.77;;;7.28;;
7557;SDS011;3820;51.098;13.716;2023-04-05T06:19:17;9.07;;;6.10;;
7557;SDS011;3820;51.098;13.716;2023-04-05T06:21:44;9.40;;;5.40;;
7557;SDS011;3820;51.098;13.716;2023-04-05T06:24:10;8.48;;;5.57;;
7557;SDS011;3820;51.098;13.716;2023-04-05T06:26:38;8.70;;;5.65;;
7557;SDS011;3820;51.098;13.716;2023-04-05T06:29:04;7.60;;;5.10;;
7557;SDS011;3820;51.098;13.716;2023-04-05T06:31:32;7.25;;;4.93;;
7557;SDS011;3820;51.098;13.716;2023-04-05T06:33:59;6.07;;;4.50;;
7557;SDS011;3820;51.098;13.716;2023-04-05T06:36:28;7.28;;;4.65;;
7557;SDS011;3820;51.098;13.716;2023-04-05T06:38:58;7.20;;;5.00;;
7557;SDS011;3820;51.098;13.716;2023-04-05T06:41:25;5.75;;;4.65;;
7557;SDS011;3820;51.098;13.716;2023-04-05T06:43:53;9.75;;;4.43;;
7557;SDS011;3820;51.098;13.716;2023-04-05T06:46:21;6.55;;;4.50;;
7557;SDS011;3820;51.098;13.716;2023-04-05T06:48:47;7.78;;;4.53;;
7557;SDS011;3820;51.098;13.716;2023-04-05T06:51:15;8.25;;;4.47;;
7557;SDS011;3820;51.098;13.716;2023-04-05T06:53:42;8.23;;;4.43;;
7557;SDS011;3820;51.098;13.716;2023-04-05T06:56:08;7.93;;;4.00;;
7557;SDS011;3820;51.098;13.716;2023-04-05T06:58:36;4.90;;;3.83;;
7557;SDS011;3820;51.098;13.716;2023-04-05T07:01:02;6.85;;;3.97;;
7557;SDS011;3820;51.098;13.716;2023-04-05T07:03:29;7.28;;;3.63;;
7557;SDS011;3820;51.098;13.716;2023-04-05T07:05:57;5.43;;;3.50;;
7557;SDS011;3820;51.098;13.716;2023-04-05T07:08:28;6.15;;;4.20;;
7557;SDS011;3820;51.098;13.716;2023-04-05T07:10:56;5.20;;;3.70;;
7557;SDS011;3820;51.098;13.716;2023-04-05T07:13:23;4.65;;;3.50;;
7557;SDS011;3820;51.098;13.716;2023-04-05T07:15:50;4.72;;;3.38;;
7557;SDS011;3820;51.098;13.716;2023-04-05T07:18:18;5.07;;;3.38;;
7557;SDS011;3820;51.098;13.716;2023-04-05T07:20:45;5.70;;;3.70;;
7557;SDS011;3820;51.098;13.716;2023-04-05T07:23:13;11.88;;;6.88;;
7557;SDS011;3820;51.098;13.716;2023-04-05T07:25:39;7.18;;;4.25;;
7557;SDS011;3820;51.098;13.716;2023-04-05T07:28:06;16.02;;;10.77;;
7557;SDS011;3820;51.098;13.716;2023-04-05T07:30:33;11.95;;;7.82;;
7557;SDS011;3820;51.098;13.716;2023-04-05T07:33:02;7.32;;;6.00;;
7557;SDS011;3820;51.098;13.716;2023-04-05T07:35:28;15.70;;;11.10;;
7557;SDS011;3820;51.098;13.716;2023-04-05T07:37:55;8.30;;;5.10;;
7557;SDS011;3820;51.098;13.716;2023-04-05T07:40:22;6.25;;;4.00;;
7557;SDS011;3820;51.098;13.716;2023-04-05T07:42:48;6.25;;;3.70;;
7557;SDS011;3820;51.098;13.716;2023-04-05T07:45:16;5.10;;;3.65;;
7557;SDS011;3820;51.098;13.716;2023-04-05T07:47:42;6.15;;;3.60;;
7557;SDS011;3820;51.098;13.716;2023-04-05T07:50:09;5.68;;;3.60;;
7557;SDS011;3820;51.098;13.716;2023-04-05T07:52:37;6.03;;;3.70;;
7557;SDS011;3820;51.098;13.716;2023-04-05T07:55:03;6.50;;;4.90;;
7557;SDS011;3820;51.098;13.716;2023-04-05T07:57:32;8.23;;;3.80;;
7557;SDS011;3820;51.098;13.716;2023-04-05T07:59:58;6.95;;;4.10;;
7557;SDS011;3820;51.098;13.716;2023-04-05T08:02:26;5.43;;;3.65;;
7557;SDS011;3820;51.098;13.716;2023-04-05T08:04:52;8.45;;;4.10;;
7557;SDS011;3820;51.098;13.716;2023-04-05T08:07:19;6.38;;;4.15;;
7557;SDS011;3820;51.098;13.716;2023-04-05T08:09:47;5.90;;;4.35;;
7557;SDS011;3820;51.098;13.716;2023-04-05T08:12:14;6.63;;;3.97;;
7557;SDS011;3820;51.098;13.716;2023-04-05T08:14:40;4.72;;;3.67;;
7557;SDS011;3820;51.098;13.716;2023-04-05T08:17:07;6.10;;;4.10;;
7557;SDS011;3820;51.098;13.716;2023-04-05T08:19:33;8.00;;;4.65;;
7557;SDS011;3820;51.098;13.716;2023-04-05T08:22:00;8.68;;;4.15;;
7557;SDS011;3820;51.098;13.716;2023-04-05T08:24:26;5.18;;;4.10;;
7557;SDS011;3820;51.098;13.716;2023-04-05T08:26:53;6.05;;;4.00;;
7557;SDS011;3820;51.098;13.716;2023-04-05T08:29:19;5.72;;;3.95;;
7557;SDS011;3820;51.098;13.716;2023-04-05T08:31:46;5.60;;;4.18;;
7557;SDS011;3820;51.098;13.716;2023-04-05T08:34:12;6.53;;;4.40;;
7557;SDS011;3820;51.098;13.716;2023-04-05T08:36:38;7.25;;;3.80;;
7557;SDS011;3820;51.098;13.716;2023-04-05T08:39:05;7.32;;;4.10;;
7557;SDS011;3820;51.098;13.716;2023-04-05T08:41:35;9.20;;;4.00;;
7557;SDS011;3820;51.098;13.716;2023-04-05T08:44:08;6.53;;;4.07;;
7557;SDS011;3820;51.098;13.716;2023-04-05T08:46:35;7.18;;;4.28;;
7557;SDS011;3820;51.098;13.716;2023-04-05T08:49:06;7.47;;;4.05;;
7557;SDS011;3820;51.098;13.716;2023-04-05T08:51:37;6.43;;;4.30;;
7557;SDS011;3820;51.098;13.716;2023-04-05T08:54:06;6.38;;;4.72;;
7557;SDS011;3820;51.098;13.716;2023-04-05T08:56:34;7.07;;;4.30;;
7557;SDS011;3820;51.098;13.716;2023-04-05T09:01:33;6.73;;;4.20;;
7557;SDS011;3820;51.098;13.716;2023-04-05T09:04:09;8.40;;;3.80;;
7557;SDS011;3820;51.098;13.716;2023-04-05T09:06:50;4.85;;;3.58;;
7557;SDS011;3820;51.098;13.716;2023-04-05T09:09:17;5.05;;;3.75;;
7557;SDS011;3820;51.098;13.716;2023-04-05T09:11:45;5.65;;;3.55;;
7557;SDS011;3820;51.098;13.716;2023-04-05T09:14:13;6.25;;;3.47;;
7557;SDS011;3820;51.098;13.716;2023-04-05T09:16:41;7.13;;;4.00;;
7557;SDS011;3820;51.098;13.716;2023-04-05T09:19:08;5.32;;;3.50;;
7557;SDS011;3820;51.098;13.716;2023-04-05T09:24:35;8.20;;;3.88;;
7557;SDS011;3820;51.098;13.716;2023-04-05T09:27:03;6.75;;;4.20;;
7557;SDS011;3820;51.098;13.716;2023-04-05T09:29:31;6.13;;;3.85;;
7557;SDS011;3820;51.098;13.716;2023-04-05T09:31:59;5.28;;;3.47;;
7557;SDS011;3820;51.098;13.716;2023-04-05T09:34:26;6.47;;;3.92;;
7557;SDS011;3820;51.098;13.716;2023-04-05T09:36:55;5.38;;;3.80;;
7557;SDS011;3820;51.098;13.716;2023-04-05T09:39:32;8.88;;;4.25;;
7557;SDS011;3820;51.098;13.716;2023-04-05T09:44:51;6.78;;;4.20;;
7557;SDS011;3820;51.098;13.716;2023-04-05T09:47:23;5.03;;;3.73;;
7557;SDS011;3820;51.098;13.716;2023-04-05T09:49:52;6.35;;;3.80;;
7557;SDS011;3820;51.098;13.716;2023-04-05T09:52:23;6.32;;;3.78;;
7557;SDS011;3820;51.098;13.716;2023-04-05T09:54:52;5.63;;;3.70;;
7557;SDS011;3820;51.098;13.716;2023-04-05T09:57:21;4.50;;;3.60;;
7557;SDS011;3820;51.098;13.716;2023-04-05T09:59:48;6.40;;;3.97;;
7557;SDS011;3820;51.098;13.716;2023-04-05T10:02:15;5.07;;;3.45;;
7557;SDS011;3820;51.098;13.716;2023-04-05T10:04:45;5.40;;;3.58;;
7557;SDS011;3820;51.098;13.716;2023-04-05T10:07:12;5.55;;;3.65;;
7557;SDS011;3820;51.098;13.716;2023-04-05T10:09:42;5.50;;;3.42;;
7557;SDS011;3820;51.098;13.716;2023-04-05T10:12:11;5.53;;;3.95;;
7557;SDS011;3820;51.098;13.716;2023-04-05T10:14:39;5.00;;;3.55;;
7557;SDS011;3820;51.098;13.716;2023-04-05T10:17:13;3.67;;;2.97;;
7557;SDS011;3820;51.098;13.716;2023-04-05T10:22:35;7.10;;;3.40;;
7557;SDS011;3820;51.098;13.716;2023-04-05T10:25:27;4.25;;;3.40;;
7557;SDS011;3820;51.098;13.716;2023-04-05T10:28:11;8.10;;;3.58;;
7557;SDS011;3820;51.098;13.716;2023-04-05T10:33:38;7.20;;;3.97;;
7557;SDS011;3820;51.098;13.716;2023-04-05T10:36:10;5.55;;;3.50;;
7557;SDS011;3820;51.098;13.716;2023-04-05T10:39:04;5.88;;;3.85;;
7557;SDS011;3820;51.098;13.716;2023-04-05T10:41:47;6.88;;;3.60;;
7557;SDS011;3820;51.098;13.716;2023-04-05T10:44:14;6.07;;;3.70;;
7557;SDS011;3820;51.098;13.716;2023-04-05T10:46:52;7.40;;;3.60;;
7557;SDS011;3820;51.098;13.716;2023-04-05T10:51:59;5.22;;;3.92;;
7557;SDS011;3820;51.098;13.716;2023-04-05T10:54:27;5.30;;;3.60;;
7557;SDS011;3820;51.098;13.716;2023-04-05T10:56:55;5.73;;;3.63;;
7557;SDS011;3820;51.098;13.716;2023-04-05T10:59:21;7.90;;;3.73;;
7557;SDS011;3820;51.098;13.716;2023-04-05T11:01:48;7.07;;;3.80;;
7557;SDS011;3820;51.098;13.716;2023-04-05T11:04:15;7.00;;;4.13;;
7557;SDS011;3820;51.098;13.716;2023-04-05T11:06:42;6.03;;;3.80;;
7557;SDS011;3820;51.098;13.716;2023-04-05T11:09:13;5.47;;;3.40;;
7557;SDS011;3820;51.098;13.716;2023-04-05T11:11:44;7.40;;;3.73;;
7557;SDS011;3820;51.098;13.716;2023-04-05T11:14:24;6.87;;;3.80;;
7557;SDS011;3820;51.098;13.716;2023-04-05T11:16:59;4.87;;;3.20;;
7557;SDS011;3820;51.098;13.716;2023-04-05T11:22:11;5.67;;;3.50;;
7557;SDS011;3820;51.098;13.716;2023-04-05T11:24:52;6.63;;;3.47;;
7557;SDS011;3820;51.098;13.716;2023-04-05T11:27:29;7.37;;;3.83;;
7557;SDS011;3820;51.098;13.716;2023-04-05T11:30:00;4.93;;;3.93;;
7557;SDS011;3820;51.098;13.716;2023-04-05T11:32:40;6.03;;;3.60;;
7557;SDS011;3820;51.098;13.716;2023-04-05T11:35:12;4.50;;;3.40;;
7557;SDS011;3820;51.098;13.716;2023-04-05T11:40:34;5.53;;;3.33;;
7557;SDS011;3820;51.098;13.716;2023-04-05T11:43:06;4.70;;;3.27;;
7557;SDS011;3820;51.098;13.716;2023-04-05T11:45:33;8.33;;;4.50;;
7557;SDS011;3820;51.098;13.716;2023-04-05T11:48:08;4.70;;;3.00;;
7557;SDS011;3820;51.098;13.716;2023-04-05T11:50:38;6.27;;;4.07;;
7557;SDS011;3820;51.098;13.716;2023-04-05T11:53:11;8.30;;;4.10;;
7557;SDS011;3820;51.098;13.716;2023-04-05T11:55:45;8.07;;;3.53;;
7557;SDS011;3820;51.098;13.716;2023-04-05T11:58:13;3.93;;;3.30;;
7557;SDS011;3820;51.098;13.716;2023-04-05T12:00:44;7.00;;;3.77;;
7557;SDS011;3820;51.098;13.716;2023-04-05T12:03:12;6.47;;;3.55;;
7557;SDS011;3820;51.098;13.716;2023-04-05T12:08:13;8.40;;;3.85;;
7557;SDS011;3820;51.098;13.716;2023-04-05T12:10:39;4.60;;;3.60;;
7557;SDS011;3820;51.098;13.716;2023-04-05T12:13:06;5.78;;;3.63;;
7557;SDS011;3820;51.098;13.716;2023-04-05T12:15:35;6.03;;;3.60;;
7557;SDS011;3820;51.098;13.716;2023-04-05T12:18:03;6.57;;;3.40;;
7557;SDS011;3820;51.098;13.716;2023-04-05T12:20:29;4.77;;;3.43;;
7557;SDS011;3820;51.098;13.716;2023-04-05T12:22:56;6.80;;;3.80;;
7557;SDS011;3820;51.098;13.716;2023-04-05T12:25:23;4.30;;;3.38;;
7557;SDS011;3820;51.098;13.716;2023-04-05T12:27:50;5.17;;;3.57;;
7557;SDS011;3820;51.098;13.716;2023-04-05T12:30:20;5.40;;;3.50;;
7557;SDS011;3820;51.098;13.716;2023-04-05T12:32:54;9.13;;;3.43;;
7557;SDS011;3820;51.098;13.716;2023-04-05T12:35:23;5.80;;;3.10;;
7557;SDS011;3820;51.098;13.716;2023-04-05T12:37:52;5.00;;;3.50;;
7557;SDS011;3820;51.098;13.716;2023-04-05T12:40:19;4.23;;;3.20;;
7557;SDS011;3820;51.098;13.716;2023-04-05T12:42:49;7.95;;;3.42;;
7557;SDS011;3820;51.098;13.716;2023-04-05T12:45:17;4.53;;;3.30;;
7557;SDS011;3820;51.098;13.716;2023-04-05T12:48:02;7.47;;;3.60;;
7557;SDS011;3820;51.098;13.716;2023-04-05T12:50:29;5.18;;;3.03;;
7557;SDS011;3820;51.098;13.716;2023-04-05T12:53:00;5.70;;;3.70;;
7557;SDS011;3820;51.098;13.716;2023-04-05T12:55:27;7.03;;;3.47;;
7557;SDS011;3820;51.098;13.716;2023-04-05T12:57:55;4.28;;;3.40;;
7557;SDS011;3820;51.098;13.716;2023-04-05T13:00:25;4.85;;;3.25;;
7557;SDS011;3820;51.098;13.716;2023-04-05T13:02:53;5.00;;;3.50;;
7557;SDS011;3820;51.098;13.716;2023-04-05T13:05:25;6.57;;;3.40;;
7557;SDS011;3820;51.098;13.716;2023-04-05T13:07:54;5.33;;;3.00;;
7557;SDS011;3820;51.098;13.716;2023-04-05T13:10:23;5.70;;;3.50;;
7557;SDS011;3820;51.098;13.716;2023-04-05T13:12:50;8.27;;;3.50;;
7557;SDS011;3820;51.098;13.716;2023-04-05T13:15:16;5.73;;;3.20;;
7557;SDS011;3820;51.098;13.716;2023-04-05T13:17:43;5.00;;;3.00;;
7557;SDS011;3820;51.098;13.716;2023-04-05T13:20:10;4.53;;;3.17;;
7557;SDS011;3820;51.098;13.716;2023-04-05T13:22:37;4.87;;;3.17;;
7557;SDS011;3820;51.098;13.716;2023-04-05T13:25:05;7.17;;;3.37;;
7557;SDS011;3820;51.098;13.716;2023-04-05T13:27:32;5.07;;;3.37;;
7557;SDS011;3820;51.098;13.716;2023-04-05T13:29:58;5.53;;;3.13;;
7557;SDS011;3820;51.098;13.716;2023-04-05T13:32:26;3.63;;;2.90;;
7557;SDS011;3820;51.098;13.716;2023-04-05T13:34:53;4.47;;;3.20;;
7557;SDS011;3820;51.098;13.716;2023-04-05T13:37:20;6.77;;;3.30;;
7557;SDS011;3820;51.098;13.716;2023-04-05T13:39:47;8.70;;;3.23;;
7557;SDS011;3820;51.098;13.716;2023-04-05T13:42:13;7.17;;;3.20;;
7557;SDS011;3820;51.098;13.716;2023-04-05T13:44:40;6.40;;;3.40;;
7557;SDS011;3820;51.098;13.716;2023-04-05T13:47:06;5.43;;;3.20;;
7557;SDS011;3820;51.098;13.716;2023-04-05T13:49:34;8.37;;;3.50;;
7557;SDS011;3820;51.098;13.716;2023-04-05T13:52:01;4.83;;;3.33;;
7557;SDS011;3820;51.098;13.716;2023-04-05T13:54:27;4.33;;;3.07;;
7557;SDS011;3820;51.098;13.716;2023-04-05T13:56:54;3.63;;;3.00;;
7557;SDS011;3820;51.098;13.716;2023-04-05T13:59:21;4.47;;;3.00;;
7557;SDS011;3820;51.098;13.716;2023-04-05T14:01:48;3.87;;;2.70;;
7557;SDS011;3820;51.098;13.716;2023-04-05T14:04:14;6.70;;;3.07;;
7557;SDS011;3820;51.098;13.716;2023-04-05T14:06:41;4.30;;;2.73;;
7557;SDS011;3820;51.098;13.716;2023-04-05T14:09:09;2.93;;;2.57;;
7557;SDS011;3820;51.098;13.716;2023-04-05T14:11:36;3.07;;;2.77;;
7557;SDS011;3820;51.098;13.716;2023-04-05T14:14:04;4.93;;;2.60;;
7557;SDS011;3820;51.098;13.716;2023-04-05T14:16:30;2.63;;;2.20;;
7557;SDS011;3820;51.098;13.716;2023-04-05T14:18:57;3.83;;;2.70;;
7557;SDS011;3820;51.098;13.716;2023-04-05T14:21:23;5.40;;;2.50;;
7557;SDS011;3820;51.098;13.716;2023-04-05T14:23:50;3.43;;;2.53;;
7557;SDS011;3820;51.098;13.716;2023-04-05T14:26:23;3.30;;;2.50;;
7557;SDS011;3820;51.098;13.716;2023-04-05T14:28:51;3.77;;;2.57;;
7557;SDS011;3820;51.098;13.716;2023-04-05T14:31:18;4.20;;;2.60;;
7557;SDS011;3820;51.098;13.716;2023-04-05T14:33:44;3.07;;;2.50;;
7557;SDS011;3820;51.098;13.716;2023-04-05T14:36:14;4.50;;;2.80;;
7557;SDS011;3820;51.098;13.716;2023-04-05T14:38:40;4.80;;;2.60;;
7557;SDS011;3820;51.098;13.716;2023-04-05T14:41:08;3.13;;;2.38;;
7557;SDS011;3820;51.098;13.716;2023-04-05T14:43:36;3.95;;;2.90;;
7557;SDS011;3820;51.098;13.716;2023-04-05T14:46:03;5.93;;;3.20;;
7557;SDS011;3820;51.098;13.716;2023-04-05T14:48:30;4.33;;;2.80;;
7557;SDS011;3820;51.098;13.716;2023-04-05T14:50:57;3.65;;;2.50;;
7557;SDS011;3820;51.098;13.716;2023-04-05T14:53:26;3.85;;;2.50;;
7557;SDS011;3820;51.098;13.716;2023-04-05T14:55:53;4.53;;;2.50;;
7557;SDS011;3820;51.098;13.716;2023-04-05T14:58:19;4.78;;;2.50;;
7557;SDS011;3820;51.098;13.716;2023-04-05T15:00:46;4.68;;;2.85;;
7557;SDS011;3820;51.098;13.716;2023-04-05T15:03:14;3.50;;;2.60;;
7557;SDS011;3820;51.098;13.716;2023-04-05T15:05:41;4.22;;;2.97;;
7557;SDS011;3820;51.098;13.716;2023-04-05T15:08:08;7.53;;;3.90;;
7557;SDS011;3820;51.098;13.716;2023-04-05T15:10:34;4.05;;;2.70;;
7557;SDS011;3820;51.098;13.716;2023-04-05T15:13:01;3.05;;;2.75;;
7557;SDS011;3820;51.098;13.716;2023-04-05T15:15:30;3.50;;;2.70;;
7557;SDS011;3820;51.098;13.716;2023-04-05T15:17:57;6.22;;;2.70;;
7557;SDS011;3820;51.098;13.716;2023-04-05T15:20:25;4.40;;;2.80;;
7557;SDS011;3820;51.098;13.716;2023-04-05T15:22:52;7.77;;;5.27;;
7557;SDS011;3820;51.098;13.716;2023-04-05T15:25:18;8.97;;;6.43;;
7557;SDS011;3820;51.098;13.716;2023-04-05T15:27:45;5.27;;;3.57;;
7557;SDS011;3820;51.098;13.716;2023-04-05T15:30:12;4.70;;;2.90;;
7557;SDS011;3820;51.098;13.716;2023-04-05T15:32:38;4.97;;;2.93;;
7557;SDS011;3820;51.098;13.716;2023-04-05T15:35:05;13.53;;;9.90;;
7557;SDS011;3820;51.098;13.716;2023-04-05T15:37:32;8.77;;;5.67;;